Time;durP1;ratioP1;P1;durP2;ratioP2;P2;SDS_P1;SDS_P2;PMS_P1;PMS_P2;Temp;Humidity;BMP_temperature;BMP_pressure;BME280_temperature;BME280_humidity;BME280_pressure;Samples;Min_cycle;Max_cycle;Signal;HPM_P1;HPM_P2
2021/07/17 00:02:07;;;;;;;9.10;4.53;;;21.60;99.90;;;;;;5051651;28;20029;-71
2021/07/17 00:04:33;;;;;;;8.02;3.97;;;21.60;99.90;;;;;;5049953;28;20037;-69
2021/07/17 00:06:59;;;;;;;10.13;4.63;;;21.50;99.90;;;;;;5051506;28;20032;-72
2021/07/17 00:09:24;;;;;;;8.77;4.20;;;21.60;99.90;;;;;;5051397;28;20408;-71
2021/07/17 00:11:50;;;;;;;7.95;4.03;;;21.50;99.90;;;;;;5050387;28;20028;-72
2021/07/17 00:14:16;;;;;;;9.05;4.25;;;21.50;99.90;;;;;;5050271;28;20053;-70
2021/07/17 00:16:42;;;;;;;8.60;4.63;;;21.50;99.90;;;;;;5050948;28;20395;-70
2021/07/17 00:19:09;;;;;;;9.65;4.55;;;21.50;99.90;;;;;;5051218;28;20025;-72
2021/07/17 00:21:35;;;;;;;10.60;4.63;;;21.50;99.90;;;;;;5051369;28;20025;-73
2021/07/17 00:24:01;;;;;;;9.93;4.65;;;21.50;99.90;;;;;;5050832;28;20032;-72
2021/07/17 00:26:26;;;;;;;9.85;4.60;;;21.50;99.90;;;;;;5052222;28;20123;-72
2021/07/17 00:28:52;;;;;;;8.15;3.92;;;21.50;99.90;;;;;;5054884;28;20079;-73
2021/07/17 00:31:18;;;;;;;10.20;4.75;;;21.50;99.90;;;;;;5055071;28;20057;-71
2021/07/17 00:33:43;;;;;;;10.65;5.05;;;21.40;99.90;;;;;;5054759;28;20060;-73
2021/07/17 00:36:09;;;;;;;9.77;4.10;;;21.40;99.90;;;;;;5053949;28;20063;-72
2021/07/17 00:38:35;;;;;;;10.80;5.15;;;21.40;99.90;;;;;;5055231;28;20377;-70
2021/07/17 00:41:00;;;;;;;7.95;4.22;;;21.40;99.90;;;;;;5054498;28;20052;-71
2021/07/17 00:43:26;;;;;;;8.20;4.40;;;21.40;99.90;;;;;;5054825;28;20053;-72
2021/07/17 00:45:52;;;;;;;9.05;4.18;;;21.40;99.90;;;;;;5054561;28;20485;-73
2021/07/17 00:48:18;;;;;;;8.48;4.15;;;21.40;99.90;;;;;;5054915;28;20036;-74
2021/07/17 00:50:43;;;;;;;9.45;4.32;;;21.40;99.90;;;;;;5054539;28;20465;-72
2021/07/17 00:53:09;;;;;;;8.63;4.22;;;21.40;99.90;;;;;;5054917;28;20504;-74
2021/07/17 00:55:38;;;;;;;9.30;4.40;;;21.40;99.90;;;;;;5054794;28;20029;-70
2021/07/17 00:58:06;;;;;;;9.38;4.38;;;21.40;99.90;;;;;;5054531;28;20029;-73
2021/07/17 01:00:31;;;;;;;7.80;4.05;;;21.40;99.90;;;;;;5054459;28;20108;-72
2021/07/17 01:03:17;;;;;;;10.02;4.53;;;21.30;99.90;;;;;;5054262;28;20607;-69
2021/07/17 01:05:43;;;;;;;9.40;4.53;;;21.30;99.90;;;;;;5054072;28;20489;-72
2021/07/17 01:08:08;;;;;;;9.70;4.43;;;21.30;99.90;;;;;;5054561;28;20074;-73
2021/07/17 01:10:34;;;;;;;9.45;4.55;;;21.30;99.90;;;;;;5054222;28;20048;-70
2021/07/17 01:13:00;;;;;;;7.28;4.18;;;21.30;99.90;;;;;;5054008;28;20381;-71
2021/07/17 01:15:26;;;;;;;10.38;4.50;;;21.30;99.90;;;;;;5054075;28;20513;-73
2021/07/17 01:17:52;;;;;;;10.10;4.38;;;21.30;99.90;;;;;;5053953;28;20029;-69
2021/07/17 01:20:21;;;;;;;8.75;4.35;;;21.30;99.90;;;;;;5052721;28;20025;-69
2021/07/17 01:22:48;;;;;;;9.20;4.20;;;21.30;99.90;;;;;;5053865;28;20028;-69
2021/07/17 01:25:17;;;;;;;9.93;4.18;;;21.30;99.90;;;;;;5054143;28;20393;-69
2021/07/17 01:27:43;;;;;;;9.82;4.57;;;21.20;99.90;;;;;;5052363;28;20380;-69
2021/07/17 01:30:15;;;;;;;9.20;4.60;;;21.30;99.90;;;;;;5054232;28;20025;-71
2021/07/17 01:32:41;;;;;;;10.93;4.70;;;21.20;99.90;;;;;;5053566;28;20083;-69
2021/07/17 01:35:07;;;;;;;8.90;4.10;;;21.30;99.90;;;;;;5054027;28;20481;-71
2021/07/17 01:37:32;;;;;;;6.53;4.10;;;21.20;99.90;;;;;;5053311;28;20059;-69
2021/07/17 01:40:00;;;;;;;7.95;4.18;;;21.20;99.90;;;;;;5053519;28;20481;-70
2021/07/17 01:42:27;;;;;;;8.27;4.10;;;21.20;99.90;;;;;;5053562;28;20029;-72
2021/07/17 01:44:53;;;;;;;9.85;4.13;;;21.20;99.90;;;;;;5053525;28;20380;-72
2021/07/17 01:47:18;;;;;;;6.95;4.22;;;21.20;99.90;;;;;;5053665;28;20025;-68
2021/07/17 01:49:44;;;;;;;7.90;4.25;;;21.20;99.90;;;;;;5051922;28;20025;-70
2021/07/17 01:52:10;;;;;;;8.25;4.22;;;21.20;99.90;;;;;;5053805;28;20028;-69
2021/07/17 01:54:37;;;;;;;8.63;4.47;;;21.10;99.90;;;;;;5053758;28;20032;-72
2021/07/17 01:57:04;;;;;;;10.55;4.50;;;21.20;99.90;;;;;;5053159;28;20036;-70
2021/07/17 01:59:35;;;;;;;8.50;4.07;;;21.20;99.90;;;;;;5053395;28;20037;-72
2021/07/17 02:02:00;;;;;;;10.07;4.60;;;21.20;99.90;;;;;;5053036;28;20067;-69
2021/07/17 02:04:26;;;;;;;7.97;4.72;;;21.10;99.90;;;;;;5053087;28;20506;-72
2021/07/17 02:06:52;;;;;;;6.28;4.00;;;21.10;99.90;;;;;;5053014;28;20109;-73
2021/07/17 02:09:17;;;;;;;9.30;4.60;;;21.10;99.90;;;;;;5053170;28;20017;-72
2021/07/17 02:11:43;;;;;;;9.25;4.80;;;21.10;99.90;;;;;;5052963;28;20135;-70
2021/07/17 02:14:08;;;;;;;11.00;4.38;;;21.10;99.90;;;;;;5053197;28;20120;-69
2021/07/17 02:16:34;;;;;;;8.27;4.20;;;21.10;99.90;;;;;;5052964;28;20033;-73
2021/07/17 02:19:11;;;;;;;8.10;3.95;;;21.10;99.90;;;;;;5035156;28;20025;-72
2021/07/17 02:21:36;;;;;;;9.45;4.55;;;21.10;99.90;;;;;;5053575;28;20432;-69
2021/07/17 02:24:02;;;;;;;9.75;4.63;;;21.10;99.90;;;;;;5052754;28;20017;-68
2021/07/17 02:26:27;;;;;;;7.95;4.38;;;21.10;99.90;;;;;;5052944;28;20017;-73
2021/07/17 02:28:53;;;;;;;7.80;4.32;;;21.10;99.90;;;;;;5052534;28;20385;-74
2021/07/17 02:31:19;;;;;;;9.70;4.45;;;21.10;99.90;;;;;;5052778;28;20029;-72
2021/07/17 02:33:44;;;;;;;7.00;4.07;;;21.10;99.90;;;;;;5052553;28;20060;-71
2021/07/17 02:36:10;;;;;;;9.05;4.53;;;21.10;99.90;;;;;;5052696;28;20104;-69
2021/07/17 02:38:35;;;;;;;6.70;3.75;;;21.00;99.90;;;;;;5052999;28;20023;-69
2021/07/17 02:41:02;;;;;;;8.55;4.47;;;21.00;99.90;;;;;;5051980;28;20104;-70
2021/07/17 02:43:27;;;;;;;9.75;4.40;;;21.00;99.90;;;;;;5052468;28;20405;-70
2021/07/17 02:45:53;;;;;;;7.45;4.43;;;21.00;99.90;;;;;;5052207;28;20029;-69
2021/07/17 02:48:19;;;;;;;6.78;4.03;;;21.00;99.90;;;;;;5051901;28;20036;-69
2021/07/17 02:50:44;;;;;;;5.60;3.83;;;21.00;99.90;;;;;;5051755;28;20052;-70
2021/07/17 02:53:10;;;;;;;5.15;3.83;;;21.00;99.90;;;;;;5052514;28;20043;-69
2021/07/17 02:55:35;;;;;;;8.57;4.15;;;21.00;99.90;;;;;;5051598;28;20037;-69
2021/07/17 02:58:01;;;;;;;8.95;4.20;;;21.00;99.90;;;;;;5052034;28;20066;-69
2021/07/17 03:00:33;;;;;;;9.15;3.75;;;21.00;99.90;;;;;;5050863;28;20025;-71
2021/07/17 03:02:58;;;;;;;7.20;3.92;;;21.00;99.90;;;;;;5051855;28;20029;-67
2021/07/17 03:05:24;;;;;;;8.50;4.65;;;21.00;99.90;;;;;;5051984;28;20115;-68
2021/07/17 03:07:50;;;;;;;8.25;3.75;;;21.00;99.90;;;;;;5051892;28;20024;-71
2021/07/17 03:10:15;;;;;;;7.10;3.78;;;21.00;99.90;;;;;;5052740;28;20389;-71
2021/07/17 03:12:41;;;;;;;7.70;4.07;;;21.00;99.90;;;;;;5051827;28;20064;-70
2021/07/17 03:15:07;;;;;;;8.52;4.03;;;21.00;99.90;;;;;;5052096;28;20041;-68
2021/07/17 03:17:33;;;;;;;9.13;4.40;;;20.90;99.90;;;;;;5052128;28;20059;-68
2021/07/17 03:19:58;;;;;;;7.80;3.78;;;20.90;99.90;;;;;;5051671;28;20052;-70
2021/07/17 03:22:24;;;;;;;8.35;4.20;;;20.90;99.90;;;;;;5051901;28;20025;-72
2021/07/17 03:24:50;;;;;;;7.88;4.18;;;20.90;99.90;;;;;;5051730;28;20346;-69
2021/07/17 03:27:15;;;;;;;7.95;3.90;;;20.90;99.90;;;;;;5051776;28;20029;-70
2021/07/17 03:29:41;;;;;;;8.02;4.32;;;20.90;99.90;;;;;;5050328;28;20029;-73
2021/07/17 03:32:07;;;;;;;8.85;4.40;;;20.90;99.90;;;;;;5051812;28;20119;-73
2021/07/17 03:34:32;;;;;;;7.68;4.28;;;20.90;99.90;;;;;;5050635;28;20423;-70
2021/07/17 03:36:58;;;;;;;10.57;4.38;;;20.90;99.90;;;;;;5051382;28;20496;-69
2021/07/17 03:39:24;;;;;;;8.93;4.25;;;20.90;99.90;;;;;;5051538;28;20384;-73
2021/07/17 03:41:49;;;;;;;9.70;4.75;;;20.90;99.90;;;;;;5051027;28;20036;-71
2021/07/17 03:44:16;;;;;;;7.28;4.57;;;20.90;99.90;;;;;;5051379;28;20499;-68
2021/07/17 03:46:42;;;;;;;10.07;4.30;;;20.90;99.90;;;;;;5051127;28;20029;-70
2021/07/17 03:49:08;;;;;;;8.65;4.28;;;20.90;99.90;;;;;;5051775;28;20029;-72
2021/07/17 03:51:33;;;;;;;8.68;4.07;;;20.80;99.90;;;;;;5051612;28;20032;-72
2021/07/17 03:53:59;;;;;;;10.43;4.20;;;20.90;99.90;;;;;;5051249;28;20477;-72
2021/07/17 03:56:25;;;;;;;9.40;4.35;;;20.80;99.90;;;;;;5051321;28;20041;-72
2021/07/17 03:58:50;;;;;;;10.00;4.60;;;20.80;99.90;;;;;;5051093;28;20101;-71
2021/07/17 04:01:17;;;;;;;7.65;4.05;;;20.80;99.90;;;;;;5051334;28;20551;-71
2021/07/17 04:03:45;;;;;;;7.35;3.80;;;20.90;99.90;;;;;;5051131;28;20025;-72
2021/07/17 04:06:11;;;;;;;8.55;4.03;;;20.80;99.90;;;;;;5051142;28;20049;-73
2021/07/17 04:08:37;;;;;;;7.80;4.05;;;20.80;99.90;;;;;;5051527;28;20034;-73
2021/07/17 04:11:02;;;;;;;8.50;3.80;;;20.80;99.90;;;;;;5050971;28;20025;-70
2021/07/17 04:13:28;;;;;;;10.50;3.90;;;20.80;99.90;;;;;;5051208;28;20535;-72
2021/07/17 04:15:54;;;;;;;8.15;4.18;;;20.80;99.90;;;;;;5050756;28;20491;-73
2021/07/17 04:18:19;;;;;;;6.72;4.05;;;20.80;99.90;;;;;;5051147;28;20025;-73
2021/07/17 04:20:45;;;;;;;8.90;4.22;;;20.80;99.90;;;;;;5050880;28;20060;-69
2021/07/17 04:23:11;;;;;;;10.10;4.28;;;20.80;99.90;;;;;;5051103;28;20029;-69
2021/07/17 04:25:36;;;;;;;7.68;4.30;;;20.80;99.90;;;;;;5051386;28;20075;-70
2021/07/17 04:28:02;;;;;;;8.73;4.03;;;20.90;99.90;;;;;;5050766;28;20470;-72
2021/07/17 04:30:28;;;;;;;7.65;4.25;;;20.80;99.90;;;;;;5051059;28;20120;-70
2021/07/17 04:32:53;;;;;;;8.70;4.28;;;20.90;99.90;;;;;;5050498;28;20376;-69
2021/07/17 04:35:19;;;;;;;9.20;4.00;;;20.90;99.90;;;;;;5050978;28;20025;-73
2021/07/17 04:37:45;;;;;;;8.35;4.25;;;20.80;99.90;;;;;;5050761;28;20029;-73
2021/07/17 04:40:11;;;;;;;8.32;4.30;;;20.80;99.90;;;;;;5050600;28;20075;-72
2021/07/17 04:42:37;;;;;;;8.95;4.55;;;20.80;99.90;;;;;;5051204;28;20031;-73
2021/07/17 04:45:03;;;;;;;10.30;4.20;;;20.80;99.90;;;;;;5050545;28;20111;-73
2021/07/17 04:47:29;;;;;;;6.55;4.03;;;20.80;99.90;;;;;;5050924;28;20052;-70
2021/07/17 04:49:54;;;;;;;7.43;4.10;;;20.80;99.90;;;;;;5050558;28;20063;-72
2021/07/17 04:52:20;;;;;;;10.15;4.57;;;20.80;99.90;;;;;;5050859;28;20021;-74
2021/07/17 04:54:46;;;;;;;6.65;4.03;;;20.80;99.90;;;;;;5050414;28;20384;-70
2021/07/17 04:57:11;;;;;;;8.77;4.07;;;20.80;99.90;;;;;;5050743;28;20052;-72
2021/07/17 04:59:37;;;;;;;7.55;4.10;;;20.80;99.90;;;;;;5049779;28;20017;-72
2021/07/17 05:02:03;;;;;;;8.27;4.32;;;20.80;99.90;;;;;;5050175;28;20094;-70
2021/07/17 05:04:28;;;;;;;7.65;4.15;;;20.80;99.90;;;;;;5050645;28;20029;-71
2021/07/17 05:06:54;;;;;;;6.93;4.05;;;20.80;99.90;;;;;;5050478;28;20128;-74
2021/07/17 05:09:20;;;;;;;7.18;3.97;;;20.80;99.90;;;;;;5050680;28;20488;-73
2021/07/17 05:11:45;;;;;;;8.77;4.30;;;20.70;99.90;;;;;;5050395;28;20087;-73
2021/07/17 05:14:11;;;;;;;6.50;3.80;;;20.80;99.90;;;;;;5054298;28;20017;-70
2021/07/17 05:16:36;;;;;;;6.60;3.80;;;20.70;99.90;;;;;;5054536;28;20065;-71
2021/07/17 05:19:02;;;;;;;8.82;4.68;;;20.70;99.90;;;;;;5052202;28;20476;-73
2021/07/17 05:21:28;;;;;;;8.45;4.50;;;20.70;99.90;;;;;;5054234;28;20029;-70
2021/07/17 05:23:54;;;;;;;9.13;4.07;;;20.70;99.90;;;;;;5054087;28;20044;-73
2021/07/17 05:26:19;;;;;;;7.38;3.95;;;20.80;99.90;;;;;;5054119;28;20029;-69
2021/07/17 05:28:45;;;;;;;6.32;3.95;;;20.80;99.90;;;;;;5053789;28;20052;-68
2021/07/17 05:31:10;;;;;;;7.05;4.03;;;20.70;99.90;;;;;;5052739;28;20032;-72
2021/07/17 05:33:36;;;;;;;7.60;4.20;;;20.70;99.90;;;;;;5053915;28;20067;-74
2021/07/17 05:36:02;;;;;;;9.30;4.00;;;20.80;99.90;;;;;;5053721;28;20199;-72
2021/07/17 05:38:28;;;;;;;9.23;4.53;;;20.70;99.90;;;;;;5052652;28;20025;-72
2021/07/17 05:40:53;;;;;;;9.25;4.47;;;20.70;99.90;;;;;;5053542;28;20033;-71
2021/07/17 05:43:19;;;;;;;6.88;4.15;;;20.70;99.90;;;;;;5052400;28;20021;-74
2021/07/17 05:45:45;;;;;;;10.05;4.47;;;20.70;99.90;;;;;;5053887;28;20035;-72
2021/07/17 05:48:10;;;;;;;9.35;4.50;;;20.70;99.90;;;;;;5053695;28;20060;-68
2021/07/17 05:50:36;;;;;;;7.65;4.22;;;20.70;99.90;;;;;;5053903;28;20060;-70
2021/07/17 05:53:08;;;;;;;8.82;4.60;;;20.70;99.90;;;;;;5053188;28;20057;-68
2021/07/17 05:55:34;;;;;;;7.80;3.95;;;20.70;99.90;;;;;;5053441;28;20033;-68
2021/07/17 05:58:00;;;;;;;8.43;4.40;;;20.70;99.90;;;;;;5053185;28;20025;-70
2021/07/17 06:00:26;;;;;;;10.77;4.60;;;20.70;99.90;;;;;;5053461;28;20096;-73
2021/07/17 06:02:51;;;;;;;6.85;4.25;;;20.70;99.90;;;;;;5052909;28;20025;-69
2021/07/17 06:05:17;;;;;;;8.25;4.40;;;20.70;99.90;;;;;;5052694;28;20041;-69
2021/07/17 06:07:42;;;;;;;8.57;4.47;;;20.70;99.90;;;;;;5052355;28;20025;-72
2021/07/17 06:10:09;;;;;;;9.13;4.40;;;20.70;99.90;;;;;;5053063;28;20029;-70
2021/07/17 06:12:34;;;;;;;7.78;4.50;;;20.70;99.90;;;;;;5053097;28;20158;-74
2021/07/17 06:15:00;;;;;;;10.48;4.60;;;20.70;99.90;;;;;;5052567;28;20124;-72
2021/07/17 06:17:26;;;;;;;9.82;4.50;;;20.80;99.90;;;;;;5052884;28;20028;-69
2021/07/17 06:19:51;;;;;;;10.98;5.07;;;20.70;99.90;;;;;;5050985;28;20024;-70
2021/07/17 06:22:17;;;;;;;13.10;5.30;;;20.70;99.90;;;;;;5052267;28;20501;-70
2021/07/17 06:24:43;;;;;;;8.00;4.53;;;20.70;99.90;;;;;;5052644;28;20393;-69
2021/07/17 06:27:09;;;;;;;9.13;5.03;;;20.80;99.90;;;;;;5053350;28;20078;-72
2021/07/17 06:29:35;;;;;;;8.48;4.90;;;20.80;99.90;;;;;;5052447;28;20033;-73
2021/07/17 06:32:04;;;;;;;9.07;4.65;;;20.70;99.90;;;;;;5051749;28;20035;-73
2021/07/17 06:34:30;;;;;;;9.50;4.90;;;20.80;99.90;;;;;;5052581;28;20100;-74
2021/07/17 06:36:56;;;;;;;10.57;4.95;;;20.80;99.90;;;;;;5052547;28;20039;-70
2021/07/17 06:39:22;;;;;;;8.77;5.40;;;20.80;99.90;;;;;;5052611;28;20029;-74
2021/07/17 06:41:47;;;;;;;10.23;5.38;;;20.80;99.90;;;;;;5052175;28;20517;-75
2021/07/17 06:44:13;;;;;;;10.15;5.10;;;20.70;99.90;;;;;;5052572;28;20113;-74
2021/07/17 06:46:38;;;;;;;9.82;5.70;;;20.80;99.90;;;;;;5052912;28;20096;-73
2021/07/17 06:49:04;;;;;;;10.52;5.63;;;20.80;99.90;;;;;;5052099;28;20477;-72
2021/07/17 06:51:31;;;;;;;9.00;5.55;;;20.80;99.90;;;;;;5052233;28;20108;-74
2021/07/17 06:53:57;;;;;;;12.90;6.03;;;20.80;99.90;;;;;;5052054;28;20025;-75
2021/07/17 06:56:23;;;;;;;10.80;6.30;;;20.80;99.90;;;;;;5052517;28;20036;-75
2021/07/17 06:58:49;;;;;;;13.30;6.68;;;20.80;99.90;;;;;;5051960;28;20033;-74
2021/07/17 07:01:16;;;;;;;11.68;6.32;;;20.80;99.90;;;;;;5052495;28;20453;-72
2021/07/17 07:03:41;;;;;;;13.18;6.95;;;20.80;99.90;;;;;;5051650;28;20079;-69
2021/07/17 07:06:07;;;;;;;13.70;7.38;;;20.80;99.90;;;;;;5034478;28;20040;-71
2021/07/17 07:08:33;;;;;;;11.93;6.50;;;20.80;99.90;;;;;;5051426;28;20108;-73
2021/07/17 07:10:59;;;;;;;12.73;7.63;;;20.90;99.90;;;;;;5051800;28;20810;-71
2021/07/17 07:13:25;;;;;;;17.98;8.60;;;20.90;99.90;;;;;;5051479;28;20043;-70
2021/07/17 07:15:50;;;;;;;23.70;12.60;;;20.80;99.90;;;;;;5051490;28;20037;-71
2021/07/17 07:18:16;;;;;;;24.65;13.05;;;20.80;99.90;;;;;;5051589;28;20108;-72
2021/07/17 07:20:42;;;;;;;22.33;12.80;;;20.80;99.90;;;;;;5050954;28;20392;-70
2021/07/17 07:23:07;;;;;;;25.83;13.90;;;20.80;99.90;;;;;;5052338;28;20029;-71
2021/07/17 07:25:34;;;;;;;30.27;14.25;;;20.70;99.90;;;;;;5051781;28;20370;-71
2021/07/17 07:27:59;;;;;;;25.20;14.77;;;20.70;99.90;;;;;;5051354;28;20567;-73
2021/07/17 07:30:25;;;;;;;24.92;13.90;;;20.80;99.90;;;;;;5051872;28;20483;-73
2021/07/17 07:32:52;;;;;;;26.80;14.40;;;20.80;99.90;;;;;;5035765;28;20025;-74
2021/07/17 07:35:22;;;;;;;26.75;14.63;;;20.80;99.90;;;;;;5031385;28;20120;-74
2021/07/17 07:37:49;;;;;;;26.48;15.60;;;20.80;99.90;;;;;;5031795;28;20045;-73
2021/07/17 07:40:16;;;;;;;25.42;15.02;;;20.70;99.90;;;;;;5037678;28;20044;-75
2021/07/17 07:42:42;;;;;;;21.90;14.93;;;20.70;99.90;;;;;;5056812;28;20036;-73
2021/07/17 07:45:08;;;;;;;26.38;15.27;;;20.70;99.90;;;;;;5058873;28;20029;-73
2021/07/17 07:47:34;;;;;;;26.02;14.77;;;20.70;99.90;;;;;;5057540;28;20025;-75
2021/07/17 07:49:59;;;;;;;23.58;14.57;;;20.70;99.90;;;;;;5050815;28;20044;-72
2021/07/17 07:52:25;;;;;;;26.20;14.40;;;20.70;99.90;;;;;;5051447;28;20036;-75
2021/07/17 07:54:51;;;;;;;32.65;15.05;;;20.70;99.90;;;;;;5051316;28;20029;-75
2021/07/17 07:57:17;;;;;;;23.40;14.02;;;20.80;99.90;;;;;;5051333;28;20033;-74
2021/07/17 07:59:43;;;;;;;27.27;14.70;;;20.80;99.90;;;;;;5051258;28;20366;-70
2021/07/17 08:02:09;;;;;;;24.92;13.88;;;20.80;99.90;;;;;;5051722;28;20033;-74
2021/07/17 08:04:34;;;;;;;24.65;13.75;;;20.80;99.90;;;;;;5051208;28;20025;-73
2021/07/17 08:07:00;;;;;;;23.48;13.52;;;20.80;99.90;;;;;;5050538;28;20033;-72
2021/07/17 08:09:26;;;;;;;25.67;13.52;;;20.80;99.90;;;;;;5051335;28;20025;-72
2021/07/17 08:11:52;;;;;;;22.58;12.82;;;20.80;99.90;;;;;;5050539;28;20323;-72
2021/07/17 08:14:18;;;;;;;24.25;12.45;;;20.80;99.90;;;;;;5050724;28;20075;-72
2021/07/17 08:16:43;;;;;;;20.38;12.73;;;20.80;99.90;;;;;;5050372;28;20116;-70
2021/07/17 08:19:09;;;;;;;27.73;12.80;;;20.80;99.90;;;;;;5051286;28;20109;-72
2021/07/17 08:21:35;;;;;;;20.40;12.13;;;20.80;99.90;;;;;;5051426;28;20037;-72
2021/07/17 08:24:02;;;;;;;20.52;11.15;;;20.90;99.90;;;;;;5051074;28;20017;-73
2021/07/17 08:26:29;;;;;;;21.10;10.77;;;21.00;99.90;;;;;;5049911;28;20032;-70
2021/07/17 08:28:54;;;;;;;23.90;11.52;;;21.00;99.90;;;;;;5050924;28;20018;-72
2021/07/17 08:31:20;;;;;;;24.77;11.23;;;21.00;99.90;;;;;;5051132;28;20466;-71
2021/07/17 08:33:46;;;;;;;23.67;11.35;;;21.00;99.90;;;;;;5050766;28;20025;-72
2021/07/17 08:36:11;;;;;;;21.30;10.30;;;21.00;99.90;;;;;;5051004;28;20033;-72
2021/07/17 08:38:38;;;;;;;19.92;10.52;;;21.00;99.90;;;;;;5051261;28;20029;-71
2021/07/17 08:41:09;;;;;;;22.05;10.30;;;21.00;99.90;;;;;;5050087;28;20078;-71
2021/07/17 08:43:36;;;;;;;19.25;9.90;;;21.00;99.90;;;;;;5050950;28;20021;-72
2021/07/17 08:46:02;;;;;;;22.10;10.27;;;21.00;99.90;;;;;;5050029;28;20047;-69
2021/07/17 08:48:29;;;;;;;19.48;9.52;;;21.00;99.90;;;;;;5053383;28;20024;-78
2021/07/17 08:50:55;;;;;;;15.40;9.07;;;21.20;99.90;;;;;;5054682;28;20043;-76
2021/07/17 08:53:22;;;;;;;20.50;9.63;;;21.30;99.90;;;;;;5053575;28;20461;-75
2021/07/17 08:55:48;;;;;;;20.08;9.55;;;21.40;99.90;;;;;;5054559;28;20083;-76
2021/07/17 08:58:14;;;;;;;20.75;9.73;;;21.40;99.90;;;;;;5054625;28;20021;-74
2021/07/17 09:00:42;;;;;;;18.98;9.75;;;21.50;99.90;;;;;;5049237;28;20051;-70
2021/07/17 09:03:11;;;;;;;24.95;10.40;;;21.60;99.90;;;;;;5055037;28;20478;-76
2021/07/17 09:05:48;;;;;;;19.55;10.60;;;21.60;99.90;;;;;;5054570;28;20068;-82
2021/07/17 09:08:17;;;;;;;19.42;9.18;;;21.50;99.90;;;;;;5053591;28;20025;-81
2021/07/17 09:10:54;;;;;;;18.55;9.68;;;21.50;99.90;;;;;;5054726;28;20084;-75
2021/07/17 09:13:25;;;;;;;21.88;9.30;;;21.50;99.90;;;;;;5052759;28;20499;-70
2021/07/17 09:15:50;;;;;;;16.30;9.15;;;21.50;99.90;;;;;;5053980;28;20388;-75
2021/07/17 09:18:25;;;;;;;18.67;9.93;;;21.50;99.90;;;;;;5053789;28;20030;-80
2021/07/17 09:20:57;;;;;;;12.63;8.80;;;21.50;99.90;;;;;;5054021;28;20056;-72
2021/07/17 09:23:28;;;;;;;20.05;10.27;;;21.50;99.90;;;;;;5052605;28;20060;-78
2021/07/17 09:25:54;;;;;;;15.77;9.80;;;21.50;99.90;;;;;;5052566;28;20024;-70
2021/07/17 09:28:26;;;;;;;19.08;9.32;;;21.50;99.90;;;;;;5053541;28;20029;-70
2021/07/17 09:30:55;;;;;;;16.23;9.77;;;21.50;99.90;;;;;;5052934;28;20111;-72
2021/07/17 09:33:21;;;;;;;13.77;8.75;;;21.60;99.90;;;;;;5053485;28;20032;-71
2021/07/17 09:35:48;;;;;;;17.38;9.68;;;21.50;99.90;;;;;;5052000;28;20029;-69
2021/07/17 09:38:16;;;;;;;17.02;9.63;;;21.60;99.90;;;;;;5053415;28;20020;-70
2021/07/17 09:40:51;;;;;;;16.63;9.18;;;21.60;99.90;;;;;;5052397;28;20036;-71
2021/07/17 09:43:35;;;;;;;15.70;9.35;;;21.60;99.90;;;;;;5053638;28;20021;-69
2021/07/17 09:46:19;;;;;;;14.45;9.05;;;21.60;99.90;;;;;;5054326;28;20057;-72
2021/07/17 09:48:50;;;;;;;15.13;9.55;;;21.60;99.90;;;;;;5053643;28;20029;-70
2021/07/17 09:51:20;;;;;;;15.20;9.23;;;21.60;99.90;;;;;;5053806;28;20027;-78
2021/07/17 09:53:54;;;;;;;15.20;8.88;;;21.60;99.90;;;;;;5053520;28;20025;-74
2021/07/17 09:56:26;;;;;;;15.38;9.27;;;21.60;99.90;;;;;;5052340;28;20397;-75
2021/07/17 09:58:54;;;;;;;14.50;8.80;;;21.60;99.90;;;;;;5052922;28;20056;-74
2021/07/17 10:01:25;;;;;;;16.02;9.73;;;21.70;99.90;;;;;;5053620;28;20021;-70
2021/07/17 10:04:07;;;;;;;14.32;9.23;;;21.70;99.90;;;;;;5053197;28;20225;-73
2021/07/17 10:06:35;;;;;;;11.13;8.57;;;21.70;99.90;;;;;;5053618;28;20036;-75
2021/07/17 10:09:08;;;;;;;13.70;8.73;;;21.70;99.90;;;;;;5053156;28;20461;-73
2021/07/17 10:11:35;;;;;;;14.23;8.73;;;21.70;99.90;;;;;;5053280;28;20408;-74
2021/07/17 10:14:17;;;;;;;13.75;9.00;;;21.70;99.90;;;;;;5053142;28;20037;-78
2021/07/17 10:16:43;;;;;;;14.73;9.13;;;21.70;99.90;;;;;;5053127;28;20037;-74
2021/07/17 10:19:09;;;;;;;12.35;8.20;;;21.70;99.90;;;;;;5053398;28;20102;-78
2021/07/17 10:21:35;;;;;;;11.65;8.82;;;21.70;99.90;;;;;;5053462;28;20063;-76
2021/07/17 10:24:02;;;;;;;15.10;8.63;;;21.70;99.90;;;;;;5052842;28;20414;-76
2021/07/17 10:26:28;;;;;;;12.45;8.73;;;21.70;99.90;;;;;;5052978;28;20025;-79
2021/07/17 10:29:08;;;;;;;12.43;8.82;;;21.80;99.90;;;;;;5052699;28;20381;-77
2021/07/17 10:31:34;;;;;;;13.27;8.23;;;21.80;99.90;;;;;;5053016;28;20037;-76
2021/07/17 10:34:00;;;;;;;13.32;8.52;;;21.80;99.90;;;;;;5052632;28;20501;-72
2021/07/17 10:36:27;;;;;;;11.88;8.63;;;21.80;99.90;;;;;;5052776;28;20040;-80
2021/07/17 10:38:58;;;;;;;14.50;8.45;;;21.80;99.90;;;;;;5052776;28;20543;-77
2021/07/17 10:41:26;;;;;;;12.63;7.82;;;21.80;99.90;;;;;;5052814;28;20025;-74
2021/07/17 10:43:53;;;;;;;14.88;8.30;;;21.80;99.90;;;;;;5052425;28;20427;-73
2021/07/17 10:46:29;;;;;;;11.30;8.20;;;21.80;99.90;;;;;;5052658;28;20100;-70
2021/07/17 10:48:56;;;;;;;12.98;8.00;;;21.80;99.90;;;;;;5052465;28;20104;-72
2021/07/17 10:51:27;;;;;;;11.43;7.90;;;21.80;99.90;;;;;;5052691;28;20358;-79
2021/07/17 10:53:54;;;;;;;10.73;7.75;;;21.80;99.90;;;;;;5052310;28;20025;-72
2021/07/17 10:56:29;;;;;;;11.82;7.60;;;21.90;99.90;;;;;;5052314;28;20079;-72
2021/07/17 10:58:55;;;;;;;11.10;7.43;;;21.90;99.90;;;;;;5052179;28;20020;-72
2021/07/17 11:01:22;;;;;;;9.77;6.72;;;21.90;99.90;;;;;;5052396;28;20049;-74
2021/07/17 11:03:50;;;;;;;12.52;7.13;;;21.90;99.90;;;;;;5051469;28;20017;-74
2021/07/17 11:06:34;;;;;;;12.93;7.72;;;21.90;99.90;;;;;;5052050;28;20481;-71
2021/07/17 11:09:28;;;;;;;10.48;6.75;;;22.00;99.90;;;;;;5051952;28;20032;-71
2021/07/17 11:12:18;;;;;;;8.98;6.45;;;22.00;99.90;;;;;;5050883;28;20025;-78
2021/07/17 11:14:44;;;;;;;12.30;7.40;;;22.00;99.90;;;;;;5049095;28;20029;-70
2021/07/17 11:17:09;;;;;;;11.43;7.78;;;22.00;99.90;;;;;;5052091;28;20033;-71
2021/07/17 11:19:36;;;;;;;9.77;7.10;;;22.00;99.90;;;;;;5052364;28;20082;-76
2021/07/17 11:22:12;;;;;;;11.35;7.18;;;22.00;99.90;;;;;;5051890;28;20126;-69
2021/07/17 11:24:38;;;;;;;13.10;7.18;;;22.10;99.90;;;;;;5049884;28;20104;-79
2021/07/17 11:27:11;;;;;;;15.00;7.25;;;22.10;99.90;;;;;;5049989;28;20029;-73
2021/07/17 11:29:43;;;;;;;10.85;6.47;;;22.10;99.90;;;;;;5050595;28;20086;-74
2021/07/17 11:32:10;;;;;;;11.45;6.50;;;22.10;99.90;;;;;;5050140;28;20057;-75
2021/07/17 11:34:49;;;;;;;10.05;6.57;;;22.10;99.90;;;;;;5050596;28;20020;-75
2021/07/17 11:37:18;;;;;;;11.60;7.07;;;22.10;99.90;;;;;;5051795;28;20025;-73
2021/07/17 11:39:48;;;;;;;10.30;6.88;;;22.20;99.90;;;;;;5051531;28;20060;-77
2021/07/17 11:42:15;;;;;;;11.82;6.90;;;22.20;99.90;;;;;;5050460;28;20477;-76
2021/07/17 11:44:53;;;;;;;12.73;6.07;;;22.20;99.90;;;;;;5051167;28;20021;-76
2021/07/17 11:47:30;;;;;;;10.50;7.30;;;22.20;99.90;;;;;;5051719;28;20056;-76
2021/07/17 11:49:59;;;;;;;8.60;5.45;;;22.20;99.90;;;;;;5051248;28;20434;-73
2021/07/17 11:52:28;;;;;;;10.52;7.10;;;22.20;99.90;;;;;;5051548;28;20049;-71
2021/07/17 11:55:01;;;;;;;8.20;6.15;;;22.20;99.90;;;;;;5050639;28;20029;-74
2021/07/17 11:57:32;;;;;;;11.65;6.95;;;22.30;99.90;;;;;;5050709;28;20029;-75
2021/07/17 12:00:19;;;;;;;8.30;5.65;;;22.30;99.90;;;;;;5050802;28;20055;-69
2021/07/17 12:02:52;;;;;;;12.82;6.22;;;22.40;99.90;;;;;;5050504;28;20025;-71
2021/07/17 12:05:18;;;;;;;9.68;5.97;;;22.40;99.90;;;;;;5050285;28;20059;-73
2021/07/17 12:07:45;;;;;;;9.68;5.80;;;22.50;99.90;;;;;;5049818;28;20426;-74
2021/07/17 12:10:17;;;;;;;7.53;5.43;;;22.40;99.90;;;;;;5050075;28;20035;-83
2021/07/17 12:12:51;;;;;;;9.75;5.55;;;22.50;99.90;;;;;;5047524;28;20481;-71
2021/07/17 12:15:22;;;;;;;9.32;5.10;;;22.50;99.90;;;;;;5031299;28;20104;-79
2021/07/17 12:17:47;;;;;;;8.75;5.47;;;22.50;99.90;;;;;;5031136;28;20116;-82
2021/07/17 12:20:23;;;;;;;8.27;5.25;;;22.50;99.90;;;;;;5031334;28;20117;-82
2021/07/17 12:22:52;;;;;;;11.40;6.25;;;22.50;99.90;;;;;;5052409;28;20028;-74
2021/07/17 12:25:21;;;;;;;9.40;5.03;;;22.60;99.90;;;;;;5055050;28;20020;-71
2021/07/17 12:27:51;;;;;;;8.98;5.07;;;22.60;99.90;;;;;;5055025;28;20021;-82
2021/07/17 12:30:16;;;;;;;9.07;5.28;;;22.60;99.90;;;;;;5055227;28;20032;-74
2021/07/17 12:32:42;;;;;;;9.85;5.13;;;22.60;99.90;;;;;;5054761;28;20033;-75
2021/07/17 12:35:09;;;;;;;9.52;5.13;;;22.70;99.90;;;;;;5054825;28;20025;-71
2021/07/17 12:37:34;;;;;;;11.20;4.53;;;22.70;99.90;;;;;;5054505;28;20021;-75
2021/07/17 12:40:08;;;;;;;8.32;4.60;;;22.70;99.90;;;;;;5053979;28;20025;-70
2021/07/17 12:42:44;;;;;;;7.20;4.38;;;22.70;99.90;;;;;;5054954;28;20017;-73